createdAt,value
2022-10-30T00:00:32.175Z,5.23
2022-10-30T00:02:58.876Z,4.87
2022-10-30T00:05:26.044Z,4.50
2022-10-30T00:07:56.345Z,4.80
2022-10-30T00:10:22.946Z,4.70
2022-10-30T00:12:50.512Z,4.83
2022-10-30T00:15:17.602Z,4.80
2022-10-30T00:17:43.968Z,5.37
2022-10-30T00:20:10.629Z,5.13
2022-10-30T00:22:37.176Z,5.30
2022-10-30T00:25:04.873Z,4.80
2022-10-30T00:27:31.561Z,5.03
2022-10-30T00:29:57.959Z,5.30
2022-10-30T00:32:24.313Z,4.83
2022-10-30T00:34:51.118Z,5.27
2022-10-30T00:37:17.608Z,5.30
2022-10-30T00:39:44.036Z,4.67
2022-10-30T00:42:15.016Z,4.93
2022-10-30T00:44:44.563Z,4.90
2022-10-30T00:47:18.725Z,5.17
2022-10-30T00:49:53.276Z,4.77
2022-10-30T00:52:23.360Z,5.13
2022-10-30T00:54:50.841Z,5.23
2022-10-30T00:57:18.942Z,5.20
2022-10-30T00:59:46.010Z,4.40
2022-10-30T01:02:12.517Z,4.83
2022-10-30T01:04:40.889Z,5.10
2022-10-30T01:07:10.860Z,5.27
2022-10-30T01:09:38.889Z,5.70
2022-10-30T01:12:05.768Z,4.80
2022-10-30T01:14:34.216Z,4.93
2022-10-30T01:17:15.766Z,5.77
2022-10-30T01:19:53.157Z,4.83
2022-10-30T01:22:38.557Z,4.60
2022-10-30T01:25:35.244Z,5.20
2022-10-30T01:28:20.366Z,4.93
2022-10-30T01:31:05.556Z,4.97
2022-10-30T01:34:03.272Z,5.13
2022-10-30T01:36:45.878Z,5.37
2022-10-30T01:39:40.480Z,4.40
2022-10-30T01:42:31.070Z,5.30
2022-10-30T01:44:57.848Z,6.67
2022-10-30T01:47:41.008Z,5.80
2022-10-30T01:50:44.976Z,5.57
2022-10-30T01:53:37.498Z,5.20
2022-10-30T01:56:20.549Z,5.60
2022-10-30T01:59:05.152Z,5.07
2022-10-30T02:01:34.989Z,5.27
2022-10-30T02:06:30.234Z,4.93
2022-10-30T02:08:57.162Z,5.60
2022-10-30T02:11:25.521Z,5.10
2022-10-30T02:13:55.300Z,4.30
2022-10-30T02:16:23.184Z,4.87
2022-10-30T02:18:49.611Z,5.20
2022-10-30T02:21:15.969Z,5.67
2022-10-30T02:23:42.418Z,5.40
2022-10-30T02:26:08.856Z,5.50
2022-10-30T02:28:35.301Z,5.30
2022-10-30T02:31:01.848Z,4.70
2022-10-30T02:33:28.318Z,5.23
2022-10-30T02:35:54.812Z,5.63
2022-10-30T02:38:21.183Z,5.00
2022-10-30T02:40:47.744Z,4.90
2022-10-30T02:43:14.280Z,4.70
2022-10-30T02:45:40.700Z,4.87
2022-10-30T02:48:07.570Z,5.07
2022-10-30T02:50:34.060Z,5.90
2022-10-30T02:53:00.934Z,4.90
2022-10-30T02:55:27.775Z,5.63
2022-10-30T02:57:54.499Z,5.37
2022-10-30T03:00:20.960Z,5.70
2022-10-30T03:02:47.414Z,5.70
2022-10-30T03:05:13.884Z,5.37
2022-10-30T03:07:40.191Z,5.30
2022-10-30T03:10:06.973Z,5.10
2022-10-30T03:12:33.407Z,5.33
2022-10-30T03:14:59.781Z,5.50
2022-10-30T03:17:26.246Z,5.13
2022-10-30T03:19:52.712Z,5.17
2022-10-30T03:22:19.035Z,5.10
2022-10-30T03:24:45.692Z,4.53
2022-10-30T03:27:12.068Z,4.83
2022-10-30T03:29:38.390Z,5.50
2022-10-30T03:32:08.350Z,5.40
2022-10-30T03:34:34.779Z,5.30
2022-10-30T03:37:01.093Z,4.90
2022-10-30T03:39:27.471Z,5.27
2022-10-30T03:41:53.784Z,5.20
2022-10-30T03:44:20.142Z,5.53
2022-10-30T03:46:46.628Z,5.67
2022-10-30T03:49:12.948Z,5.27
2022-10-30T03:51:39.339Z,5.93
2022-10-30T03:54:05.689Z,5.47
2022-10-30T03:56:32.024Z,5.70
2022-10-30T03:58:58.388Z,4.90
2022-10-30T04:01:24.895Z,4.73
2022-10-30T04:03:51.400Z,4.87
2022-10-30T04:06:17.874Z,5.10
2022-10-30T04:08:44.210Z,5.30
2022-10-30T04:11:11.290Z,5.40
2022-10-30T04:13:37.874Z,5.10
2022-10-30T04:16:04.614Z,4.73
2022-10-30T04:18:30.984Z,5.17
2022-10-30T04:21:00.088Z,5.40
2022-10-30T04:23:26.455Z,5.27
2022-10-30T04:25:52.792Z,5.00
2022-10-30T04:28:21.367Z,5.13
2022-10-30T04:30:48.021Z,5.07
2022-10-30T04:33:14.903Z,5.33
2022-10-30T04:35:42.214Z,4.90
2022-10-30T04:38:11.068Z,5.10
2022-10-30T04:40:39.624Z,4.83
2022-10-30T04:43:07.233Z,5.33
2022-10-30T04:45:34.492Z,5.70
2022-10-30T04:48:02.917Z,4.77
2022-10-30T04:50:29.547Z,5.30
2022-10-30T04:53:13.162Z,5.20
2022-10-30T04:55:39.609Z,4.87
2022-10-30T04:58:07.837Z,5.63
2022-10-30T05:00:34.152Z,5.20
2022-10-30T05:03:01.922Z,6.13
2022-10-30T05:05:29.768Z,4.83
2022-10-30T05:07:56.997Z,5.97
2022-10-30T05:10:25.557Z,5.53
2022-10-30T05:12:53.646Z,5.50
2022-10-30T05:15:20.200Z,4.93
2022-10-30T05:17:50.727Z,5.17
2022-10-30T05:20:18.929Z,5.80
2022-10-30T05:22:45.600Z,5.30
2022-10-30T05:25:12.178Z,5.20
2022-10-30T05:27:38.528Z,5.97
2022-10-30T05:30:05.316Z,6.00
2022-10-30T05:32:31.791Z,4.87
2022-10-30T05:34:58.124Z,5.63
2022-10-30T05:37:24.686Z,5.93
2022-10-30T05:39:51.061Z,5.00
2022-10-30T05:42:17.409Z,5.30
2022-10-30T05:45:01.321Z,5.93
2022-10-30T05:47:28.535Z,5.37
2022-10-30T05:49:54.896Z,5.43
2022-10-30T05:52:21.261Z,5.70
2022-10-30T05:54:47.635Z,4.90
2022-10-30T05:57:13.995Z,5.57
2022-10-30T05:59:40.342Z,5.20
2022-10-30T06:02:06.758Z,5.67
2022-10-30T06:04:33.126Z,5.57
2022-10-30T06:06:59.530Z,5.77
2022-10-30T06:09:25.959Z,6.27
2022-10-30T06:11:53.143Z,6.57
2022-10-30T06:14:19.439Z,5.57
2022-10-30T06:16:45.868Z,6.30
2022-10-30T06:19:17.336Z,5.33
2022-10-30T06:21:45.973Z,5.37
2022-10-30T06:24:13.001Z,4.93
2022-10-30T06:26:39.505Z,5.20
2022-10-30T06:29:06.143Z,5.47
2022-10-30T06:31:32.651Z,5.50
2022-10-30T06:33:59.176Z,5.90
2022-10-30T06:36:25.564Z,5.27
2022-10-30T06:38:51.939Z,5.60
2022-10-30T06:41:18.342Z,5.37
2022-10-30T06:43:44.732Z,5.27
2022-10-30T06:46:11.056Z,6.83
2022-10-30T06:48:37.367Z,5.43
2022-10-30T06:51:04.334Z,5.93
2022-10-30T06:53:30.784Z,6.33
2022-10-30T06:56:03.777Z,6.27
2022-10-30T06:58:30.487Z,5.87
2022-10-30T07:01:00.796Z,5.57
2022-10-30T07:03:27.149Z,5.83
2022-10-30T07:05:53.540Z,5.77
2022-10-30T07:08:19.858Z,5.70
2022-10-30T07:10:46.191Z,6.13
2022-10-30T07:13:12.533Z,5.77
2022-10-30T07:15:38.935Z,5.90
2022-10-30T07:18:05.604Z,5.80
2022-10-30T07:20:34.395Z,7.43
2022-10-30T07:23:01.714Z,6.60
2022-10-30T07:25:28.427Z,6.63
2022-10-30T07:27:56.410Z,6.70
2022-10-30T07:33:04.499Z,6.50
2022-10-30T07:35:32.551Z,6.43
2022-10-30T07:38:07.060Z,6.97
2022-10-30T07:40:34.006Z,6.47
2022-10-30T07:43:02.431Z,6.43
2022-10-30T07:45:29.216Z,6.07
2022-10-30T07:47:56.034Z,6.40
2022-10-30T07:50:23.553Z,6.80
2022-10-30T07:52:50.232Z,6.40
2022-10-30T07:55:16.681Z,6.30
2022-10-30T07:57:43.088Z,6.03
2022-10-30T08:00:14.254Z,5.90
2022-10-30T08:02:41.064Z,6.57
2022-10-30T08:05:08.188Z,6.30
2022-10-30T08:07:36.879Z,6.93
2022-10-30T08:10:04.214Z,6.47
2022-10-30T08:12:33.000Z,6.23
2022-10-30T08:14:59.472Z,5.97
2022-10-30T08:17:26.040Z,6.10
2022-10-30T08:19:52.564Z,6.30
2022-10-30T08:22:18.857Z,6.47
2022-10-30T08:24:45.169Z,6.47
2022-10-30T08:27:11.633Z,5.83
2022-10-30T08:29:38.109Z,5.77
2022-10-30T08:32:04.734Z,4.97
2022-10-30T08:34:32.392Z,5.13
2022-10-30T08:36:58.780Z,5.70
2022-10-30T08:39:25.151Z,5.70
2022-10-30T08:41:51.654Z,4.70
2022-10-30T08:44:18.468Z,6.83
2022-10-30T08:46:44.858Z,5.23
2022-10-30T08:49:11.321Z,5.13
2022-10-30T08:51:37.616Z,4.57
2022-10-30T08:54:04.036Z,4.80
2022-10-30T08:56:30.372Z,5.10
2022-10-30T08:58:56.693Z,4.53
2022-10-30T09:01:23.099Z,4.97
2022-10-30T09:03:49.599Z,4.70
2022-10-30T09:06:15.971Z,5.30
2022-10-30T09:08:42.516Z,4.67
2022-10-30T09:11:09.002Z,4.50
2022-10-30T09:13:35.524Z,4.50
2022-10-30T09:16:02.897Z,5.10
2022-10-30T09:18:29.697Z,4.80
2022-10-30T09:20:56.027Z,5.80
2022-10-30T09:23:22.365Z,5.30
2022-10-30T09:25:48.707Z,5.43
2022-10-30T09:28:15.057Z,5.23
2022-10-30T09:30:41.364Z,4.87
2022-10-30T09:33:08.912Z,4.47
2022-10-30T09:35:36.915Z,4.77
2022-10-30T09:38:03.477Z,4.97
2022-10-30T09:40:35.835Z,4.40
2022-10-30T09:43:43.784Z,4.97
2022-10-30T09:46:31.352Z,4.30
2022-10-30T09:49:23.909Z,4.80
2022-10-30T09:52:16.689Z,4.50
2022-10-30T09:54:58.168Z,5.00
2022-10-30T09:57:30.547Z,4.67
2022-10-30T09:59:59.811Z,4.60
2022-10-30T10:02:29.678Z,4.43
2022-10-30T10:05:12.847Z,4.77
2022-10-30T10:07:45.322Z,4.03
2022-10-30T10:10:19.766Z,4.53
2022-10-30T10:12:55.958Z,4.53
2022-10-30T10:15:39.671Z,4.57
2022-10-30T10:18:14.435Z,4.17
2022-10-30T10:20:43.718Z,5.27
2022-10-30T10:23:26.258Z,5.43
2022-10-30T10:25:54.351Z,4.53
2022-10-30T10:28:40.188Z,4.10
2022-10-30T10:31:40.112Z,4.60
2022-10-30T10:34:27.000Z,4.43
2022-10-30T10:37:23.503Z,4.80
2022-10-30T10:40:11.068Z,4.40
2022-10-30T10:42:47.818Z,4.83
2022-10-30T10:45:43.883Z,3.90
2022-10-30T10:48:19.559Z,4.37
2022-10-30T10:50:48.419Z,4.50
2022-10-30T10:53:24.203Z,4.10
2022-10-30T10:55:54.134Z,4.50
2022-10-30T10:58:43.640Z,4.07
2022-10-30T11:01:28.076Z,4.17
2022-10-30T11:04:03.948Z,4.07
2022-10-30T11:06:34.844Z,4.43
2022-10-30T11:09:14.411Z,4.60
2022-10-30T11:11:40.772Z,3.90
2022-10-30T11:14:29.059Z,4.17
2022-10-30T11:17:15.598Z,4.77
2022-10-30T11:19:42.110Z,3.67
2022-10-30T11:22:22.791Z,4.13
2022-10-30T11:24:49.203Z,4.03
2022-10-30T11:27:23.240Z,4.33
2022-10-30T11:30:04.333Z,4.23
2022-10-30T11:32:33.278Z,4.10
2022-10-30T11:35:08.937Z,4.17
2022-10-30T11:37:40.324Z,4.30
2022-10-30T11:40:19.762Z,4.07
2022-10-30T11:42:47.598Z,4.30
2022-10-30T11:45:23.273Z,3.85
2022-10-30T11:47:49.977Z,4.05
2022-10-30T11:50:25.815Z,4.53
2022-10-30T11:52:58.209Z,3.80
2022-10-30T11:55:44.999Z,4.60
2022-10-30T11:58:23.973Z,3.97
2022-10-30T12:01:05.263Z,3.80
2022-10-30T12:03:39.775Z,3.70
2022-10-30T12:06:27.615Z,4.40
2022-10-30T12:09:12.396Z,4.20
2022-10-30T12:11:43.269Z,4.03
2022-10-30T12:14:19.073Z,4.23
2022-10-30T12:16:48.758Z,4.63
2022-10-30T12:19:16.453Z,3.53
2022-10-30T12:21:49.560Z,3.95
2022-10-30T12:24:32.495Z,3.60
2022-10-30T12:27:02.540Z,4.47
2022-10-30T12:30:15.044Z,4.63
2022-10-30T12:32:54.667Z,3.83
2022-10-30T12:35:48.499Z,4.13
2022-10-30T12:38:17.201Z,4.00
2022-10-30T12:40:58.726Z,4.22
2022-10-30T12:43:27.533Z,3.90
2022-10-30T12:46:10.062Z,3.97
2022-10-30T12:48:50.099Z,3.92
2022-10-30T12:51:26.604Z,3.85
2022-10-30T12:54:17.611Z,3.40
2022-10-30T12:56:47.945Z,3.95
2022-10-30T12:59:32.630Z,4.00
2022-10-30T13:02:11.362Z,3.58
2022-10-30T13:04:44.204Z,3.78
2022-10-30T13:07:38.932Z,3.50
2022-10-30T13:10:29.142Z,3.72
2022-10-30T13:13:02.046Z,3.90
2022-10-30T13:15:43.533Z,3.70
2022-10-30T13:18:19.002Z,3.63
2022-10-30T13:21:18.085Z,3.67
2022-10-30T13:24:03.915Z,3.92
2022-10-30T13:26:41.227Z,3.67
2022-10-30T13:29:33.951Z,3.38
2022-10-30T13:32:26.660Z,3.58
2022-10-30T13:35:12.725Z,4.25
2022-10-30T13:37:46.631Z,3.85
2022-10-30T13:40:29.374Z,3.55
2022-10-30T13:43:15.509Z,3.92
2022-10-30T13:46:00.120Z,3.83
2022-10-30T13:48:54.630Z,4.05
2022-10-30T13:51:31.963Z,7.72
2022-10-30T13:54:20.653Z,3.97
2022-10-30T13:56:48.669Z,3.70
2022-10-30T13:59:47.828Z,3.60
2022-10-30T14:02:29.381Z,3.38
2022-10-30T14:05:04.190Z,3.42
2022-10-30T14:07:45.170Z,3.80
2022-10-30T14:10:21.503Z,3.50
2022-10-30T14:12:54.811Z,3.92
2022-10-30T14:15:24.400Z,3.53
2022-10-30T14:18:12.872Z,3.17
2022-10-30T14:20:44.739Z,3.75
2022-10-30T14:23:20.507Z,3.92
2022-10-30T14:26:02.028Z,3.58
2022-10-30T14:28:29.704Z,4.43
2022-10-30T14:31:11.008Z,4.20
2022-10-30T14:33:40.321Z,4.30
2022-10-30T14:36:25.077Z,3.78
2022-10-30T14:39:10.436Z,3.53
2022-10-30T14:42:13.516Z,3.70
2022-10-30T14:44:52.253Z,3.40
2022-10-30T14:47:36.387Z,7.22
2022-10-30T14:50:25.563Z,4.22
2022-10-30T14:53:01.466Z,3.80
2022-10-30T14:55:33.464Z,3.80
2022-10-30T14:58:02.900Z,3.58
2022-10-30T15:00:35.315Z,3.50
2022-10-30T15:03:18.845Z,3.53
2022-10-30T15:05:48.259Z,3.42
2022-10-30T15:08:23.247Z,3.63
2022-10-30T15:11:14.016Z,3.42
2022-10-30T15:13:51.478Z,3.92
2022-10-30T15:16:21.195Z,3.50
2022-10-30T15:19:02.767Z,3.20
2022-10-30T15:21:33.284Z,3.75
2022-10-30T15:24:02.306Z,3.60
2022-10-30T15:26:36.617Z,3.60
2022-10-30T15:29:04.332Z,3.70
2022-10-30T15:31:30.810Z,3.30
2022-10-30T15:34:00.164Z,3.30
2022-10-30T15:36:40.374Z,2.93
2022-10-30T15:39:14.068Z,3.30
2022-10-30T15:41:59.374Z,3.47
2022-10-30T15:44:30.190Z,3.27
2022-10-30T15:47:00.934Z,3.70
2022-10-30T15:49:34.158Z,3.60
2022-10-30T15:52:13.380Z,3.03
2022-10-30T15:54:44.042Z,3.30
2022-10-30T16:00:35.136Z,3.93
2022-10-30T16:03:10.794Z,3.33
2022-10-30T16:05:37.278Z,3.07
2022-10-30T16:08:12.361Z,3.70
2022-10-30T16:10:41.412Z,3.73
2022-10-30T16:13:16.831Z,3.77
2022-10-30T16:15:45.666Z,3.83
2022-10-30T16:18:31.587Z,4.27
2022-10-30T16:21:05.174Z,3.60
2022-10-30T16:23:38.324Z,3.87
2022-10-30T16:26:04.768Z,3.53
2022-10-30T16:28:37.868Z,3.37
2022-10-30T16:31:06.853Z,3.73
2022-10-30T16:33:35.319Z,4.07
2022-10-30T16:36:04.857Z,4.13
2022-10-30T16:38:36.876Z,3.37
2022-10-30T16:41:13.461Z,3.57
2022-10-30T16:44:03.891Z,3.70
2022-10-30T16:46:35.584Z,3.70
2022-10-30T16:49:06.795Z,3.27
2022-10-30T16:51:33.329Z,3.60
2022-10-30T16:54:00.196Z,3.43
2022-10-30T16:56:30.692Z,5.50
2022-10-30T16:59:06.457Z,3.80
2022-10-30T17:01:33.450Z,3.63
2022-10-30T17:04:00.405Z,4.63
2022-10-30T17:06:39.953Z,4.27
2022-10-30T17:09:10.180Z,4.37
2022-10-30T17:11:44.702Z,4.30
2022-10-30T17:14:19.934Z,4.23
2022-10-30T17:16:54.132Z,4.07
2022-10-30T17:19:29.823Z,4.00
2022-10-30T17:22:02.421Z,3.87
2022-10-30T17:24:33.044Z,3.90
2022-10-30T17:27:02.288Z,4.93
2022-10-30T17:29:37.852Z,3.97
2022-10-30T17:32:06.027Z,3.60
2022-10-30T17:34:38.649Z,4.73
2022-10-30T17:37:05.051Z,4.23
2022-10-30T17:39:31.492Z,4.17
2022-10-30T17:41:58.054Z,4.50
2022-10-30T17:44:25.527Z,5.40
2022-10-30T17:46:52.731Z,4.90
2022-10-30T17:49:29.446Z,6.07
2022-10-30T17:51:56.140Z,7.67
2022-10-30T17:54:22.463Z,7.43
2022-10-30T17:56:49.272Z,7.83
2022-10-30T17:59:16.029Z,7.00
2022-10-30T18:01:42.595Z,6.93
2022-10-30T18:04:19.620Z,6.80
2022-10-30T18:06:48.252Z,6.60
2022-10-30T18:09:14.875Z,7.00
2022-10-30T18:11:41.217Z,6.60
2022-10-30T18:14:10.527Z,6.33
2022-10-30T18:16:36.913Z,5.83
2022-10-30T18:19:03.285Z,6.03
2022-10-30T18:21:31.356Z,6.00
2022-10-30T18:23:57.769Z,5.47
2022-10-30T18:26:26.067Z,6.10
2022-10-30T18:28:52.987Z,6.20
2022-10-30T18:31:21.812Z,5.73
2022-10-30T18:33:49.004Z,6.20
2022-10-30T18:36:17.258Z,6.40
2022-10-30T18:38:43.921Z,6.20
2022-10-30T18:41:14.788Z,6.33
2022-10-30T18:43:45.571Z,6.20
2022-10-30T18:46:14.270Z,6.80
2022-10-30T18:48:40.632Z,6.50
2022-10-30T18:51:15.664Z,7.00
2022-10-30T18:53:41.975Z,6.23
2022-10-30T18:56:11.124Z,6.87
2022-10-30T18:58:37.641Z,6.30
2022-10-30T19:01:11.980Z,6.30
2022-10-30T19:03:39.085Z,6.80
2022-10-30T19:06:09.617Z,5.90
2022-10-30T19:08:35.944Z,6.70
2022-10-30T19:11:02.285Z,6.90
2022-10-30T19:13:28.722Z,6.63
2022-10-30T19:16:00.926Z,6.83
2022-10-30T19:18:28.935Z,6.80
2022-10-30T19:21:04.511Z,7.30
2022-10-30T19:23:32.402Z,6.40
2022-10-30T19:25:58.833Z,6.13
2022-10-30T19:28:25.927Z,7.27
2022-10-30T19:30:54.495Z,7.30
2022-10-30T19:33:22.908Z,6.90
2022-10-30T19:35:57.293Z,7.13
2022-10-30T19:38:23.863Z,7.03
2022-10-30T19:40:50.782Z,6.30
2022-10-30T19:43:17.099Z,7.47
2022-10-30T19:45:43.517Z,6.60
2022-10-30T19:48:24.732Z,7.00
2022-10-30T19:51:00.823Z,7.20
2022-10-30T19:53:27.286Z,7.23
2022-10-30T19:55:53.952Z,10.27
2022-10-30T19:58:23.612Z,9.60
2022-10-30T20:00:54.338Z,8.00
2022-10-30T20:03:21.274Z,7.73
2022-10-30T20:05:51.979Z,7.30
2022-10-30T20:08:20.730Z,7.13
2022-10-30T20:10:52.625Z,6.73
2022-10-30T20:13:20.376Z,6.63
2022-10-30T20:15:47.382Z,6.50
2022-10-30T20:18:16.820Z,7.50
2022-10-30T20:20:54.586Z,6.93
2022-10-30T20:23:22.476Z,7.50
2022-10-30T20:25:50.672Z,7.77
2022-10-30T20:28:36.275Z,7.10
2022-10-30T20:31:03.233Z,7.50
2022-10-30T20:33:29.731Z,7.77
2022-10-30T20:35:56.418Z,8.50
2022-10-30T20:38:32.638Z,7.57
2022-10-30T20:41:01.251Z,7.10
2022-10-30T20:43:36.680Z,7.60
2022-10-30T20:46:07.200Z,7.67
2022-10-30T20:48:33.509Z,7.87
2022-10-30T20:51:01.607Z,7.03
2022-10-30T20:53:29.092Z,7.33
2022-10-30T20:55:55.862Z,7.33
2022-10-30T20:58:22.288Z,7.57
2022-10-30T21:00:49.532Z,6.23
2022-10-30T21:03:16.137Z,6.30
2022-10-30T21:05:45.668Z,7.00
2022-10-30T21:08:13.766Z,6.90
2022-10-30T21:10:40.716Z,6.30
2022-10-30T21:13:09.048Z,6.47
2022-10-30T21:15:40.944Z,6.50
2022-10-30T21:18:08.237Z,6.23
2022-10-30T21:20:35.595Z,6.67
2022-10-30T21:23:02.040Z,6.17
2022-10-30T21:25:28.831Z,6.70
2022-10-30T21:27:58.678Z,6.27
2022-10-30T21:30:25.131Z,6.53
2022-10-30T21:32:51.537Z,6.13
2022-10-30T21:35:18.222Z,6.77
2022-10-30T21:37:44.638Z,6.03
2022-10-30T21:40:11.732Z,6.57
2022-10-30T21:42:38.124Z,6.57
2022-10-30T21:45:05.956Z,6.30
2022-10-30T21:47:32.371Z,6.17
2022-10-30T21:49:58.747Z,6.00
2022-10-30T21:52:25.911Z,6.50
2022-10-30T21:54:52.212Z,7.13
2022-10-30T21:57:18.554Z,7.10
2022-10-30T21:59:44.870Z,7.00
2022-10-30T22:02:14.294Z,6.90
2022-10-30T22:04:40.764Z,6.57
2022-10-30T22:07:07.312Z,6.83
2022-10-30T22:09:33.765Z,5.90
2022-10-30T22:12:00.224Z,6.57
2022-10-30T22:14:26.888Z,5.77
2022-10-30T22:16:53.235Z,5.97
2022-10-30T22:19:19.761Z,6.43
2022-10-30T22:21:46.071Z,6.70
2022-10-30T22:24:13.775Z,6.37
2022-10-30T22:26:40.244Z,6.07
2022-10-30T22:29:06.881Z,6.70
2022-10-30T22:31:33.436Z,5.80
2022-10-30T22:34:00.904Z,6.67
2022-10-30T22:36:30.347Z,6.43
2022-10-30T22:39:01.243Z,6.73
2022-10-30T22:41:30.048Z,6.13
2022-10-30T22:44:00.010Z,6.27
2022-10-30T22:46:28.750Z,6.07
2022-10-30T22:48:56.064Z,6.57
2022-10-30T22:51:22.646Z,6.97
2022-10-30T22:53:57.224Z,6.63
2022-10-30T22:56:26.259Z,6.43
2022-10-30T22:58:53.944Z,6.37
2022-10-30T23:01:23.616Z,7.00
2022-10-30T23:03:52.023Z,6.23
2022-10-30T23:06:19.828Z,7.33
2022-10-30T23:08:47.084Z,5.83
2022-10-30T23:11:14.324Z,6.50
2022-10-30T23:13:40.997Z,6.73
2022-10-30T23:16:09.747Z,7.13
2022-10-30T23:18:36.077Z,6.80
2022-10-30T23:21:30.841Z,6.80
2022-10-30T23:23:57.479Z,6.80
2022-10-30T23:26:27.173Z,6.27
2022-10-30T23:28:55.342Z,6.17
2022-10-30T23:31:29.036Z,6.67
2022-10-30T23:33:58.656Z,6.00
2022-10-30T23:36:25.018Z,6.50
2022-10-30T23:38:56.211Z,5.73
2022-10-30T23:41:24.551Z,5.97
2022-10-30T23:43:55.399Z,5.43
2022-10-30T23:46:22.193Z,5.87
2022-10-30T23:48:48.513Z,6.33
2022-10-30T23:51:14.994Z,6.13
2022-10-30T23:53:41.456Z,6.40
2022-10-30T23:56:08.325Z,5.83
2022-10-30T23:58:35.107Z,5.60
